| time (UTC) | temp C | wind direction | speed KPH | gust KPH | rain 1hr cm | rain 24hr cm | rain mn cm | humidity % | barometer mb |
| 20260510020433 | 20 | 358 | 0.0 | 0.0 | 0.00 | 1.70 | 1.70 | 99 | 1010.8 |
| 20260510015929 | 20 | 358 | 0.0 | 0.0 | 0.00 | 1.70 | 1.70 | 99 | 1010.6 |
| 20260510015425 | 20 | 357 | 0.0 | 0.0 | 0.00 | 1.70 | 1.70 | 99 | 1010.6 |
| 20260510014920 | 20 | 358 | 0.0 | 0.0 | 0.00 | 1.70 | 1.70 | 99 | 1010.5 |
| 20260510014418 | 20 | 358 | 0.0 | 0.0 | 0.00 | 1.70 | 1.70 | 99 | 1010.6 |
| 20260510013914 | 20 | 346 | 0.0 | 0.0 | 0.00 | 1.70 | 1.70 | 99 | 1010.5 |
| 20260510013409 | 20 | 335 | 0.0 | 0.0 | 0.00 | 1.70 | 1.70 | 99 | 1010.5 |
| 20260510012905 | 20 | 350 | 0.0 | 0.0 | 0.00 | 1.70 | 1.70 | 99 | 1010.4 |
| 20260510012400 | 20 | 1 | 0.0 | 0.0 | 0.00 | 1.70 | 1.70 | 99 | 1010.4 |
| 20260510011854 | 20 | 1 | 0.0 | 0.0 | 0.00 | 1.70 | 1.70 | 99 | 1010.4 |
| 20260510011350 | 20 | 317 | 0.0 | 0.0 | 0.00 | 1.70 | 1.70 | 99 | 1010.7 |
| 20260510010846 | 21 | 312 | 0.0 | 0.0 | 0.00 | 1.70 | 1.70 | 99 | 1010.5 |
| 20260510010344 | 21 | 348 | 0.0 | 0.0 | 0.00 | 1.70 | 1.70 | 99 | 1010.5 |
| 20260510005840 | 21 | 326 | 0.0 | 0.0 | 0.00 | 1.70 | 1.70 | 99 | 1010.4 |
| 20260510005337 | 21 | 7 | 0.0 | 0.0 | 0.00 | 1.70 | 1.70 | 99 | 1010.5 |
| 20260510004834 | 21 | 350 | 0.0 | 0.0 | 0.00 | 1.70 | 1.70 | 99 | 1010.6 |
| 20260510004332 | 21 | 357 | 0.0 | 0.0 | 0.00 | 1.70 | 1.70 | 99 | 1010.4 |
| 20260510003829 | 21 | 12 | 0.0 | 0.0 | 0.00 | 1.70 | 1.70 | 99 | 1010.5 |
| 20260510003326 | 21 | 359 | 0.0 | 0.0 | 0.00 | 1.70 | 1.70 | 99 | 1010.3 |
| 20260510002825 | 21 | 1 | 0.0 | 0.0 | 0.00 | 1.70 | 1.70 | 99 | 1010.4 |
| 20260510002322 | 21 | 353 | 0.0 | 0.0 | 0.00 | 1.70 | 1.70 | 99 | 1010.3 |
| 20260510001819 | 21 | 248 | 0.0 | 0.0 | 0.00 | 1.70 | 1.70 | 99 | 1010.4 |
| 20260510001317 | 21 | 352 | 0.0 | 0.0 | 0.00 | 1.70 | 1.70 | 99 | 1010.1 |
| 20260510000812 | 21 | 8 | 0.0 | 0.0 | 0.00 | 1.70 | 1.70 | 98 | 1010.1 |
| 20260510000311 | 21 | 16 | 0.0 | 0.0 | 0.00 | 1.70 | 1.70 | 98 | 1010.2 |
| 20260509235808 | 21 | 338 | 0.0 | 0.0 | 0.00 | 1.70 | 1.70 | 98 | 1010.0 |
| 20260509235306 | 21 | 330 | 1.6 | 1.6 | 0.00 | 1.70 | 1.70 | 98 | 1009.9 |
| 20260509234800 | 21 | 48 | 1.6 | 1.6 | 0.00 | 1.70 | 1.70 | 98 | 1009.7 |
| 20260509234256 | 21 | 67 | 1.6 | 1.6 | 0.00 | 1.70 | 1.70 | 99 | 1009.8 |
| 20260509233755 | 21 | 10 | 0.0 | 0.0 | 0.00 | 1.70 | 1.70 | 99 | 1009.7 |
| 20260509233252 | 21 | 30 | 0.0 | 1.6 | 0.00 | 1.70 | 1.70 | 99 | 1010.0 |
| 20260509232748 | 21 | 157 | 1.6 | 1.6 | 0.00 | 1.70 | 1.70 | 99 | 1010.0 |
| 20260509232245 | 21 | 7 | 1.6 | 1.6 | 0.00 | 1.70 | 1.70 | 99 | 1009.7 |
| 20260509231741 | 21 | 133 | 1.6 | 1.6 | 0.00 | 1.70 | 1.70 | 99 | 1009.9 |
| 20260509231239 | 21 | 45 | 1.6 | 1.6 | 0.00 | 1.70 | 1.70 | 99 | 1010.2 |
| 20260509230736 | 21 | 66 | 1.6 | 3.2 | 0.00 | 1.70 | 1.70 | 99 | 1010.1 |
| 20260509230233 | 21 | 11 | 1.6 | 1.6 | 0.00 | 1.70 | 1.70 | 99 | 1010.1 |
| 20260509225728 | 21 | 89 | 1.6 | 1.6 | 0.00 | 1.70 | 1.70 | 99 | 1010.1 |
| 20260509225224 | 21 | 148 | 1.6 | 3.2 | 0.00 | 1.70 | 1.70 | 99 | 1010.1 |
| 20260509224720 | 21 | 110 | 1.6 | 1.6 | 0.00 | 1.70 | 1.70 | 99 | 1010.1 |
| 20260509224217 | 21 | 31 | 0.0 | 1.6 | 0.00 | 1.70 | 1.70 | 99 | 1010.2 |
| 20260509223714 | 21 | 155 | 3.2 | 3.2 | 0.00 | 1.70 | 1.70 | 99 | 1010.1 |
| 20260509223211 | 21 | 23 | 0.0 | 0.0 | 0.00 | 1.70 | 1.70 | 99 | 1009.9 |
| 20260509222708 | 21 | 140 | 1.6 | 3.2 | 0.00 | 1.70 | 1.70 | 99 | 1009.9 |
| 20260509222203 | 21 | 87 | 1.6 | 1.6 | 0.00 | 1.70 | 1.70 | 99 | 1009.7 |
| 20260509221659 | 21 | 357 | 0.0 | 0.0 | 0.00 | 1.70 | 1.70 | 99 | 1009.6 |
| 20260509221155 | 21 | 77 | 1.6 | 1.6 | 0.00 | 1.70 | 1.70 | 99 | 1009.5 |
| 20260509220652 | 21 | 81 | 1.6 | 1.6 | 0.00 | 1.70 | 1.70 | 99 | 1009.4 |
| 20260509220148 | 21 | 358 | 0.0 | 0.0 | 0.00 | 1.70 | 1.70 | 99 | 1009.7 |
| 20260509215644 | 21 | 29 | 0.0 | 1.6 | 0.00 | 1.70 | 1.70 | 99 | 1009.6 |
| 20260509215140 | 21 | 319 | 0.0 | 0.0 | 0.00 | 1.70 | 1.70 | 99 | 1009.3 |
| 20260509214632 | 21 | 60 | 1.6 | 1.6 | 0.00 | 1.70 | 1.70 | 99 | 1009.4 |
| 20260509214128 | 21 | 5 | 0.0 | 1.6 | 0.00 | 1.70 | 1.70 | 99 | 1009.3 |
| 20260509213625 | 21 | 41 | 1.6 | 1.6 | 0.00 | 1.70 | 1.70 | 99 | 1009.6 |
| 20260509213121 | 21 | 60 | 0.0 | 1.6 | 0.00 | 1.70 | 1.70 | 99 | 1009.6 |
| 20260509212619 | 21 | 49 | 1.6 | 1.6 | 0.00 | 1.70 | 1.70 | 99 | 1009.7 |
| 20260509212116 | 21 | 174 | 3.2 | 3.2 | 0.00 | 1.70 | 1.70 | 99 | 1009.6 |
| 20260509211612 | 21 | 8 | 1.6 | 3.2 | 0.00 | 1.70 | 1.70 | 99 | 1009.5 |
| 20260509211108 | 21 | 25 | 1.6 | 1.6 | 0.00 | 1.70 | 1.70 | 99 | 1009.6 |
| 20260509210605 | 21 | 75 | 1.6 | 1.6 | 0.00 | 1.70 | 1.70 | 99 | 1009.8 |
| 20260509205556 | 22 | 119 | 4.8 | 4.8 | 0.00 | 1.70 | 1.70 | 99 | 1009.6 |
| 20260509205051 | 22 | 51 | 1.6 | 1.6 | 0.00 | 1.70 | 1.70 | 99 | 1009.6 |
| 20260509204548 | 22 | 110 | 1.6 | 3.2 | 0.00 | 1.70 | 1.70 | 99 | 1009.8 |
| 20260509204045 | 22 | 58 | 0.0 | 1.6 | 0.00 | 1.70 | 1.70 | 98 | 1009.6 |
| 20260509203540 | 22 | 125 | 3.2 | 3.2 | 0.00 | 1.70 | 1.70 | 97 | 1009.8 |
| 20260509203039 | 22 | 139 | 1.6 | 3.2 | 0.00 | 1.70 | 1.70 | 97 | 1009.9 |
| 20260509202533 | 22 | 87 | 1.6 | 1.6 | 0.00 | 1.70 | 1.70 | 97 | 1009.6 |
| 20260509202029 | 23 | 99 | 1.6 | 3.2 | 0.00 | 1.70 | 1.70 | 97 | 1009.9 |
| 20260509201524 | 23 | 35 | 1.6 | 1.6 | 0.00 | 1.70 | 1.70 | 98 | 1009.8 |
| 20260509201022 | 23 | 24 | 0.0 | 1.6 | 0.00 | 1.70 | 1.70 | 98 | 1009.8 |
| 20260509200521 | 23 | 63 | 1.6 | 1.6 | 0.00 | 1.70 | 1.70 | 98 | 1009.7 |
| 20260509200019 | 23 | 15 | 0.0 | 1.6 | 0.00 | 1.70 | 1.70 | 98 | 1009.6 |
| 20260509195514 | 23 | 37 | 0.0 | 1.6 | 0.00 | 1.70 | 1.70 | 98 | 1009.7 |
| 20260509195014 | 23 | 1 | 0.0 | 0.0 | 0.00 | 1.70 | 1.70 | 98 | 1009.8 |
| 20260509194509 | 23 | 54 | 1.6 | 1.6 | 0.00 | 1.70 | 1.70 | 99 | 1009.7 |
| 20260509194007 | 23 | 11 | 0.0 | 1.6 | 0.00 | 1.70 | 1.70 | 99 | 1009.7 |
| 20260509193507 | 23 | 54 | 0.0 | 1.6 | 0.00 | 1.70 | 1.70 | 99 | 1009.5 |
| 20260509193004 | 23 | 0 | 0.0 | 0.0 | 0.00 | 1.70 | 1.70 | 99 | 1009.8 |
| 20260509192500 | 23 | 8 | 0.0 | 0.0 | 0.00 | 1.70 | 1.70 | 99 | 1009.8 |
| 20260509191955 | 23 | 305 | 0.0 | 1.6 | 0.00 | 1.70 | 1.70 | 99 | 1009.9 |
| 20260509191450 | 23 | 5 | 0.0 | 1.6 | 0.00 | 1.70 | 1.70 | 99 | 1009.9 |
| 20260509190946 | 23 | 40 | 1.6 | 1.6 | 0.00 | 1.70 | 1.70 | 99 | 1009.9 |
| 20260509190443 | 23 | 16 | 0.0 | 1.6 | 0.00 | 1.70 | 1.70 | 99 | 1009.7 |
| 20260509185941 | 22 | 189 | 1.6 | 1.6 | 0.00 | 1.70 | 1.70 | 99 | 1010.0 |
| 20260509185438 | 22 | 313 | 0.0 | 0.0 | 0.00 | 1.70 | 1.70 | 99 | 1010.0 |
| 20260509184935 | 22 | 303 | 0.0 | 0.0 | 0.00 | 1.70 | 1.70 | 99 | 1009.9 |
| 20260509184433 | 22 | 14 | 0.0 | 0.0 | 0.00 | 1.70 | 1.70 | 99 | 1010.2 |
| 20260509183929 | 22 | 355 | 0.0 | 0.0 | 0.00 | 1.70 | 1.70 | 99 | 1010.0 |
| 20260509183423 | 22 | 2 | 0.0 | 0.0 | 0.00 | 1.70 | 1.70 | 99 | 1010.1 |
| 20260509182920 | 22 | 2 | 0.0 | 0.0 | 0.00 | 1.70 | 1.70 | 99 | 1010.2 |
| 20260509182416 | 22 | 347 | 0.0 | 0.0 | 0.00 | 1.70 | 1.70 | 99 | 1010.5 |
| 20260509181914 | 22 | 347 | 0.0 | 0.0 | 0.00 | 1.70 | 1.70 | 99 | 1010.3 |
| 20260509181412 | 22 | 347 | 0.0 | 0.0 | 0.00 | 1.70 | 1.70 | 99 | 1010.4 |
| 20260509180909 | 22 | 337 | 0.0 | 0.0 | 0.00 | 1.70 | 1.70 | 99 | 1010.4 |
| 20260509180404 | 22 | 314 | 0.0 | 0.0 | 0.00 | 1.70 | 1.70 | 99 | 1010.4 |
| 20260509175901 | 22 | 309 | 0.0 | 0.0 | 0.00 | 1.70 | 1.70 | 99 | 1010.4 |
| 20260509175357 | 22 | 307 | 0.0 | 0.0 | 0.00 | 1.70 | 1.70 | 99 | 1010.7 |
| 20260509174854 | 22 | 13 | 1.6 | 1.6 | 0.00 | 1.70 | 1.70 | 99 | 1010.7 |
| 20260509174350 | 22 | 359 | 0.0 | 0.0 | 0.00 | 1.70 | 1.70 | 99 | 1010.6 |
| 20260509173846 | 22 | 328 | 0.0 | 0.0 | 0.00 | 1.70 | 1.70 | 99 | 1011.0 |
| 20260509173341 | 22 | 341 | 0.0 | 0.0 | 0.00 | 1.70 | 1.70 | 99 | 1010.8 |
| 20260509172837 | 22 | 1 | 0.0 | 0.0 | 0.00 | 1.70 | 1.70 | 99 | 1011.0 |
| 20260509172334 | 22 | 0 | 0.0 | 0.0 | 0.00 | 1.70 | 1.70 | 99 | 1010.9 |
| 20260509171830 | 22 | 325 | 0.0 | 0.0 | 0.00 | 1.70 | 1.70 | 99 | 1011.1 |
| 20260509171326 | 21 | 329 | 0.0 | 0.0 | 0.00 | 1.70 | 1.70 | 99 | 1011.2 |
| 20260509170823 | 21 | 337 | 0.0 | 0.0 | 0.00 | 1.70 | 1.70 | 99 | 1010.9 |
| 20260509170318 | 21 | 345 | 0.0 | 0.0 | 0.00 | 1.70 | 1.70 | 99 | 1011.2 |
| 20260509165818 | 21 | 322 | 0.0 | 0.0 | 0.00 | 1.70 | 1.70 | 99 | 1011.2 |
| 20260509165313 | 21 | 350 | 0.0 | 0.0 | 0.00 | 1.70 | 1.70 | 99 | 1011.1 |
| 20260509164809 | 21 | 329 | 0.0 | 0.0 | 0.00 | 1.70 | 1.70 | 99 | 1011.0 |
| 20260509164306 | 21 | 13 | 0.0 | 1.6 | 0.00 | 1.70 | 1.70 | 99 | 1011.0 |
| 20260509163802 | 21 | 345 | 0.0 | 0.0 | 0.00 | 1.70 | 1.70 | 99 | 1010.8 |
| 20260509163259 | 21 | 356 | 0.0 | 0.0 | 0.18 | 1.70 | 1.70 | 99 | 1010.9 |
| 20260509162758 | 21 | 316 | 0.0 | 1.6 | 0.18 | 1.70 | 1.70 | 99 | 1010.7 |
| 20260509162251 | 21 | 4 | 0.0 | 0.0 | 0.00 | 1.68 | 1.68 | 99 | 1010.7 |
| 20260509161747 | 21 | 16 | 0.0 | 0.0 | 0.00 | 1.68 | 1.68 | 99 | 1010.7 |
| 20260509161243 | 21 | 336 | 0.0 | 0.0 | 0.00 | 1.68 | 1.68 | 99 | 1010.7 |
| 20260509160739 | 21 | 338 | 0.0 | 0.0 | 0.00 | 1.68 | 1.68 | 99 | 1010.8 |
| 20260509160236 | 21 | 297 | 0.0 | 1.6 | 0.00 | 1.68 | 1.68 | 99 | 1010.6 |
| 20260509155731 | 20 | 357 | 0.0 | 0.0 | 0.00 | 1.68 | 1.68 | 99 | 1010.8 |
| 20260509155228 | 20 | 15 | 0.0 | 0.0 | 0.00 | 1.68 | 1.68 | 99 | 1010.8 |
| 20260509154723 | 20 | 328 | 0.0 | 0.0 | 0.00 | 1.68 | 1.68 | 99 | 1010.9 |
| 20260509154221 | 20 | 7 | 0.0 | 0.0 | 0.00 | 1.68 | 1.68 | 99 | 1010.6 |
| 20260509153718 | 20 | 355 | 1.6 | 1.6 | 0.00 | 1.68 | 1.68 | 99 | 1010.6 |
| 20260509153214 | 20 | 0 | 1.6 | 1.6 | 0.00 | 1.68 | 1.68 | 99 | 1010.5 |
| 20260509152710 | 20 | 355 | 0.0 | 0.0 | 0.00 | 1.68 | 1.68 | 99 | 1010.8 |
| 20260509152207 | 20 | 329 | 0.0 | 0.0 | 0.00 | 1.68 | 1.68 | 99 | 1010.8 |
| 20260509151704 | 20 | 13 | 0.0 | 0.0 | 0.00 | 1.68 | 1.68 | 99 | 1010.5 |
| 20260509151201 | 20 | 2 | 0.0 | 0.0 | 0.00 | 1.68 | 1.68 | 99 | 1010.6 |
| 20260509150659 | 20 | 347 | 0.0 | 0.0 | 0.00 | 1.68 | 1.68 | 99 | 1010.6 |
| 20260509150157 | 20 | 10 | 0.0 | 0.0 | 0.00 | 1.68 | 1.68 | 99 | 1010.7 |
| 20260509145653 | 20 | 308 | 0.0 | 0.0 | 0.00 | 1.68 | 1.68 | 99 | 1010.7 |
| 20260509145148 | 19 | 351 | 0.0 | 0.0 | 0.00 | 1.68 | 1.68 | 99 | 1010.9 |
| 20260509144645 | 19 | 352 | 0.0 | 0.0 | 0.00 | 1.68 | 1.68 | 99 | 1010.6 |
| 20260509144142 | 20 | 339 | 0.0 | 0.0 | 0.00 | 1.68 | 1.68 | 99 | 1010.9 |
| 20260509143639 | 19 | 0 | 0.0 | 0.0 | 0.00 | 1.68 | 1.68 | 99 | 1010.8 |
| 20260509143137 | 19 | 21 | 0.0 | 0.0 | 0.00 | 1.68 | 1.68 | 99 | 1011.0 |
| 20260509142632 | 19 | 11 | 0.0 | 0.0 | 0.00 | 1.68 | 1.68 | 99 | 1010.7 |
| 20260509142129 | 19 | 355 | 0.0 | 0.0 | 0.00 | 1.68 | 1.68 | 99 | 1011.0 |
| 20260509141624 | 19 | 4 | 0.0 | 0.0 | 0.00 | 1.68 | 1.68 | 99 | 1010.7 |
| 20260509141121 | 19 | 354 | 0.0 | 0.0 | 0.30 | 1.68 | 1.68 | 99 | 1010.8 |
| 20260509140618 | 18 | 350 | 0.0 | 0.0 | 1.68 | 1.68 | 1.68 | 99 | 1010.8 |
| 20260509140116 | 19 | 359 | 0.0 | 0.0 | 1.37 | 1.63 | 1.63 | 99 | 1010.6 |
| 20260509135613 | 19 | 332 | 0.0 | 0.0 | 0.18 | 1.42 | 1.42 | 99 | 1010.9 |
| 20260509135111 | 19 | 346 | 0.0 | 0.0 | 0.00 | 1.40 | 1.40 | 99 | 1010.8 |
| 20260509134607 | 18 | 317 | 0.0 | 0.0 | 0.00 | 1.40 | 1.40 | 99 | 1010.8 |
| 20260509134105 | 18 | 352 | 0.0 | 0.0 | 0.00 | 1.40 | 1.40 | 99 | 1010.5 |
| 20260509133602 | 18 | 4 | 0.0 | 0.0 | 0.00 | 1.40 | 1.40 | 99 | 1010.8 |
| 20260509133059 | 18 | 336 | 0.0 | 0.0 | 0.00 | 1.40 | 1.40 | 99 | 1010.6 |
| 20260509132557 | 18 | 17 | 0.0 | 0.0 | 0.00 | 1.40 | 1.40 | 99 | 1010.7 |
| 20260509132055 | 18 | 16 | 0.0 | 0.0 | 0.00 | 1.40 | 1.40 | 99 | 1010.9 |
| 20260509131551 | 18 | 319 | 0.0 | 0.0 | 0.00 | 1.40 | 1.40 | 99 | 1010.9 |
| 20260509131048 | 18 | 6 | 0.0 | 0.0 | 0.00 | 1.40 | 1.40 | 99 | 1010.7 |
| 20260509130544 | 18 | 327 | 0.0 | 0.0 | 0.00 | 1.40 | 1.40 | 99 | 1010.9 |
| 20260509130041 | 18 | 357 | 0.0 | 0.0 | 0.00 | 1.40 | 1.40 | 99 | 1010.8 |
| 20260509125537 | 18 | 0 | 0.0 | 0.0 | 0.00 | 1.40 | 1.40 | 99 | 1010.6 |
| 20260509125034 | 18 | 21 | 0.0 | 0.0 | 0.13 | 1.40 | 1.40 | 99 | 1010.5 |
| 20260509124530 | 18 | 355 | 0.0 | 0.0 | 0.43 | 1.40 | 1.40 | 99 | 1011.0 |
| 20260509124028 | 18 | 36 | 0.0 | 1.6 | 0.48 | 1.37 | 1.37 | 99 | 1010.7 |
| 20260509123526 | 18 | 2 | 0.0 | 0.0 | 0.48 | 1.32 | 1.32 | 99 | 1010.8 |
| 20260509123021 | 18 | 291 | 0.0 | 0.0 | 1.19 | 1.30 | 1.30 | 99 | 1010.7 |
| 20260509122518 | 18 | 326 | 0.0 | 0.0 | 1.68 | 1.24 | 1.24 | 99 | 1010.7 |
| 20260509122015 | 18 | 351 | 0.0 | 0.0 | 0.89 | 1.12 | 1.12 | 99 | 1010.6 |
| 20260509121512 | 18 | 344 | 0.0 | 0.0 | 0.00 | 0.97 | 0.97 | 99 | 1010.5 |
| 20260509121010 | 17 | 320 | 0.0 | 0.0 | 0.00 | 0.97 | 0.97 | 99 | 1010.6 |
| 20260509120508 | 17 | 4 | 0.0 | 0.0 | 0.00 | 0.97 | 0.97 | 99 | 1010.4 |
| 20260509120005 | 17 | 4 | 0.0 | 0.0 | 0.00 | 0.97 | 0.97 | 99 | 1010.5 |
| 20260509115502 | 17 | 0 | 0.0 | 0.0 | 0.00 | 0.97 | 0.97 | 99 | 1010.5 |
| 20260509115000 | 17 | 21 | 0.0 | 0.0 | 0.00 | 0.97 | 0.97 | 99 | 1010.3 |
| 20260509114458 | 17 | 357 | 0.0 | 0.0 | 0.00 | 0.97 | 0.97 | 99 | 1010.5 |
| 20260509113957 | 17 | 322 | 0.0 | 0.0 | 0.00 | 0.97 | 0.97 | 99 | 1010.6 |
| 20260509113454 | 17 | 322 | 0.0 | 0.0 | 0.00 | 0.97 | 0.97 | 99 | 1010.3 |
| 20260509112951 | 17 | 359 | 0.0 | 0.0 | 0.00 | 0.97 | 0.97 | 99 | 1010.5 |
| 20260509112448 | 17 | 359 | 0.0 | 0.0 | 0.00 | 0.97 | 0.97 | 99 | 1010.5 |
| 20260509111944 | 17 | 318 | 0.0 | 0.0 | 0.00 | 0.97 | 0.97 | 99 | 1010.7 |
| 20260509111442 | 17 | 337 | 0.0 | 0.0 | 0.00 | 0.97 | 0.97 | 99 | 1010.1 |
| 20260509110940 | 17 | 341 | 0.0 | 0.0 | 0.00 | 0.97 | 0.97 | 99 | 1009.9 |
| 20260509110435 | 17 | 341 | 0.0 | 0.0 | 0.00 | 0.97 | 0.97 | 99 | 1010.1 |
| 20260509105933 | 17 | 340 | 0.0 | 0.0 | 0.00 | 0.97 | 0.97 | 99 | 1009.9 |
| 20260509105432 | 17 | 351 | 0.0 | 0.0 | 0.00 | 0.97 | 0.97 | 99 | 1009.8 |
| 20260509104928 | 17 | 351 | 0.0 | 0.0 | 0.00 | 0.97 | 0.97 | 99 | 1009.8 |
| 20260509104425 | 17 | 351 | 0.0 | 0.0 | 0.00 | 0.97 | 0.97 | 99 | 1009.8 |
| 20260509103922 | 17 | 21 | 0.0 | 0.0 | 0.00 | 0.97 | 0.97 | 99 | 1009.8 |
| 20260509103420 | 17 | 18 | 0.0 | 0.0 | 0.00 | 0.97 | 0.97 | 99 | 1009.9 |
| 20260509102918 | 17 | 344 | 0.0 | 0.0 | 0.00 | 0.97 | 0.97 | 99 | 1009.6 |
| 20260509102415 | 17 | 344 | 0.0 | 0.0 | 0.00 | 0.97 | 0.97 | 99 | 1009.8 |
| 20260509101911 | 17 | 131 | 1.6 | 1.6 | 0.00 | 0.97 | 0.97 | 99 | 1009.3 |
| 20260509101407 | 17 | 10 | 0.0 | 0.0 | 0.00 | 0.97 | 0.97 | 99 | 1009.6 |
| 20260509100905 | 17 | 308 | 0.0 | 0.0 | 0.00 | 0.97 | 0.97 | 99 | 1009.3 |
| 20260509100402 | 17 | 41 | 0.0 | 0.0 | 0.00 | 0.97 | 0.97 | 99 | 1009.5 |
| 20260509095859 | 17 | 26 | 1.6 | 3.2 | 0.00 | 0.97 | 0.97 | 99 | 1009.6 |
| 20260509095356 | 17 | 274 | 1.6 | 1.6 | 0.00 | 0.97 | 0.97 | 99 | 1009.5 |
| 20260509094853 | 17 | 50 | 0.0 | 1.6 | 0.00 | 0.97 | 0.97 | 99 | 1008.4 |
| 20260509094349 | 17 | 41 | 1.6 | 1.6 | 0.00 | 0.97 | 0.97 | 99 | 1009.1 |
| 20260509093847 | 17 | 11 | 0.0 | 0.0 | 0.18 | 0.97 | 0.97 | 99 | 1009.7 |
| 20260509093344 | 17 | 32 | 0.0 | 0.0 | 0.18 | 0.97 | 0.97 | 99 | 1010.2 |
| 20260509092843 | 17 | 40 | 1.6 | 1.6 | 0.00 | 0.94 | 0.94 | 99 | 1010.2 |
| 20260509092340 | 17 | 91 | 1.6 | 1.6 | 0.00 | 0.94 | 0.94 | 99 | 1010.2 |
| 20260509091838 | 17 | 357 | 0.0 | 0.0 | 0.00 | 0.94 | 0.94 | 99 | 1010.1 |
| 20260509091335 | 18 | 38 | 0.0 | 1.6 | 0.00 | 0.94 | 0.94 | 99 | 1009.9 |
| 20260509090832 | 18 | 299 | 1.6 | 1.6 | 0.00 | 0.94 | 0.94 | 99 | 1009.7 |
| 20260509090329 | 18 | 317 | 0.0 | 1.6 | 0.00 | 0.94 | 0.94 | 99 | 1009.0 |
| 20260509085827 | 18 | 185 | 1.6 | 1.6 | 0.00 | 0.94 | 0.94 | 99 | 1008.6 |
| 20260509085324 | 18 | 271 | 1.6 | 3.2 | 0.13 | 0.94 | 0.94 | 99 | 1008.2 |
| 20260509084820 | 17 | 227 | 1.6 | 1.6 | 0.13 | 0.94 | 0.94 | 99 | 1008.7 |
| 20260509084317 | 17 | 169 | 3.2 | 3.2 | 0.00 | 0.91 | 0.91 | 99 | 1008.9 |
| 20260509083815 | 17 | 152 | 1.6 | 1.6 | 0.00 | 0.91 | 0.91 | 99 | 1008.5 |
| 20260509083311 | 17 | 154 | 1.6 | 1.6 | 0.00 | 0.91 | 0.91 | 99 | 1008.5 |
| 20260509082808 | 17 | 229 | 1.6 | 3.2 | 0.00 | 0.91 | 0.91 | 99 | 1008.3 |
| 20260509082307 | 17 | 108 | 1.6 | 1.6 | 0.18 | 0.91 | 0.91 | 99 | 1007.6 |
| 20260509081802 | 17 | 86 | 3.2 | 3.2 | 0.18 | 0.91 | 0.91 | 99 | 1008.6 |
| 20260509081259 | 17 | 146 | 3.2 | 3.2 | 0.30 | 0.89 | 0.89 | 99 | 1008.9 |
| 20260509080757 | 17 | 93 | 1.6 | 1.6 | 0.30 | 0.89 | 0.89 | 99 | 1008.7 |
| 20260509080254 | 17 | 352 | 0.0 | 0.0 | 0.18 | 0.86 | 0.86 | 99 | 1009.0 |
| 20260509075753 | 17 | 317 | 0.0 | 0.0 | 0.00 | 0.84 | 0.84 | 99 | 1009.9 |
| 20260509075250 | 17 | 44 | 0.0 | 0.0 | 1.19 | 0.84 | 0.84 | 99 | 1010.3 |
| 20260509074746 | 17 | 178 | 1.6 | 3.2 | 1.19 | 0.84 | 0.84 | 99 | 1010.6 |
| 20260509074244 | 18 | 246 | 1.6 | 3.2 | 3.53 | 1.27 | 1.27 | 99 | 1010.7 |
| 20260509073740 | 18 | 296 | 4.8 | 4.8 | 3.48 | 1.14 | 1.14 | 99 | 1010.6 |
| 20260509073237 | 20 | 3 | 3.2 | 3.2 | 1.37 | 0.76 | 0.76 | 99 | 1011.5 |
| 20260509072733 | 20 | 355 | 1.6 | 3.2 | 0.48 | 0.56 | 0.56 | 99 | 1010.8 |
| 20260509072230 | 20 | 281 | 1.6 | 1.6 | 0.48 | 0.53 | 0.53 | 99 | 1011.0 |
| 20260509071727 | 20 | 318 | 1.6 | 1.6 | 0.30 | 0.48 | 0.48 | 99 | 1010.4 |
| 20260509071224 | 20 | 346 | 1.6 | 1.6 | 0.30 | 0.46 | 0.46 | 99 | 1010.1 |
| 20260509070721 | 20 | 323 | 0.0 | 0.0 | 0.30 | 0.43 | 0.43 | 99 | 1009.8 |
| 20260509070217 | 20 | 17 | 0.0 | 0.0 | 0.89 | 0.41 | 0.41 | 99 | 1009.7 |
| 20260509065714 | 20 | 3 | 1.6 | 1.6 | 1.98 | 0.38 | 0.38 | 99 | 1009.4 |
| 20260509065210 | 20 | 344 | 0.0 | 0.0 | 1.37 | 0.23 | 0.23 | 99 | 1009.5 |
| 20260509064707 | 20 | 314 | 0.0 | 0.0 | 0.13 | 0.03 | 0.03 | 99 | 1009.7 |
| 20260509064204 | 20 | 4 | 0.0 | 0.0 | 0.00 | 0.00 | 0.00 | 99 | 1009.8 |
| 20260509063701 | 20 | 15 | 1.6 | 3.2 | 0.00 | 0.00 | 0.00 | 99 | 1010.1 |
| 20260509063158 | 20 | 10 | 1.6 | 1.6 | 0.00 | 0.00 | 0.00 | 99 | 1010.4 |
| 20260509062655 | 20 | 354 | 0.0 | 0.0 | 0.00 | 0.00 | 0.00 | 99 | 1010.6 |
| 20260509062152 | 20 | 337 | 0.0 | 0.0 | 0.00 | 0.00 | 0.00 | 99 | 1010.6 |
| 20260509061649 | 20 | 356 | 0.0 | 0.0 | 0.00 | 0.00 | 0.00 | 99 | 1010.2 |
| 20260509061146 | 20 | 356 | 0.0 | 0.0 | 0.00 | 0.00 | 0.00 | 99 | 1010.0 |
| 20260509060644 | 20 | 356 | 0.0 | 0.0 | 0.00 | 0.00 | 0.00 | 99 | 1010.1 |
| 20260509060140 | 20 | 3 | 0.0 | 0.0 | 0.00 | 0.00 | 0.00 | 99 | 1010.0 |
| 20260509055636 | 20 | 316 | 0.0 | 0.0 | 0.00 | 0.00 | 0.00 | 99 | 1010.3 |
| 20260509055132 | 20 | 11 | 0.0 | 0.0 | 0.00 | 0.00 | 0.00 | 99 | 1010.1 |
| 20260509054628 | 20 | 21 | 0.0 | 0.0 | 0.00 | 0.00 | 0.00 | 99 | 1010.3 |
| 20260509054126 | 20 | 1 | 0.0 | 0.0 | 0.00 | 0.00 | 0.00 | 99 | 1010.0 |
| 20260509053624 | 20 | 318 | 0.0 | 0.0 | 0.00 | 0.00 | 0.00 | 99 | 1009.9 |
| 20260509053121 | 20 | 46 | 0.0 | 0.0 | 0.00 | 0.00 | 0.00 | 99 | 1010.1 |
| 20260509052619 | 20 | 351 | 0.0 | 0.0 | 0.00 | 0.00 | 0.00 | 99 | 1010.3 |
| 20260509052116 | 20 | 350 | 0.0 | 0.0 | 0.00 | 0.00 | 0.00 | 99 | 1010.4 |
| 20260509051614 | 20 | 350 | 0.0 | 0.0 | 0.00 | 0.00 | 0.00 | 99 | 1010.5 |
| 20260509051111 | 20 | 350 | 0.0 | 0.0 | 0.00 | 0.00 | 0.00 | 99 | 1010.6 |
| 20260509050608 | 20 | 350 | 0.0 | 0.0 | 0.00 | 0.00 | 0.00 | 99 | 1010.7 |
| 20260509050104 | 20 | 350 | 0.0 | 0.0 | 0.00 | 0.00 | 0.00 | 99 | 1010.8 |
| 20260509045602 | 20 | 350 | 0.0 | 0.0 | 0.00 | 0.00 | 0.00 | 99 | 1010.8 |
| 20260509045058 | 20 | 350 | 0.0 | 0.0 | 0.00 | 0.00 | 0.00 | 99 | 1010.9 |
| 20260509044556 | 20 | 356 | 0.0 | 0.0 | 0.00 | 0.00 | 0.00 | 99 | 1011.0 |
| 20260509044053 | 20 | 5 | 0.0 | 0.0 | 0.00 | 0.00 | 0.00 | 99 | 1010.9 |
| 20260509043549 | 20 | 14 | 0.0 | 0.0 | 0.00 | 0.00 | 0.00 | 99 | 1010.8 |
| 20260509043045 | 20 | 349 | 0.0 | 0.0 | 0.00 | 0.00 | 0.00 | 99 | 1010.9 |
| 20260509042541 | 20 | 347 | 0.0 | 0.0 | 0.00 | 0.00 | 0.00 | 99 | 1010.7 |
| 20260509042038 | 20 | 357 | 0.0 | 0.0 | 0.00 | 0.00 | 0.00 | 99 | 1010.7 |
| 20260509041534 | 20 | 3 | 0.0 | 1.6 | 0.00 | 0.00 | 0.00 | 99 | 1011.2 |
| 20260509041032 | 20 | 345 | 0.0 | 0.0 | 0.00 | 0.00 | 0.00 | 99 | 1010.7 |
| 20260509040531 | 20 | 344 | 0.0 | 0.0 | 0.00 | 0.00 | 0.00 | 99 | 1011.0 |
| 20260509040027 | 20 | 7 | 0.0 | 0.0 | 0.00 | 0.00 | 0.00 | 99 | 1010.8 |
| 20260509035524 | 20 | 354 | 0.0 | 1.6 | 0.00 | 0.00 | 0.00 | 99 | 1010.7 |
| 20260509035020 | 20 | 356 | 0.0 | 0.0 | 0.00 | 0.00 | 0.00 | 99 | 1010.7 |
| 20260509034519 | 20 | 355 | 0.0 | 0.0 | 0.00 | 0.00 | 0.00 | 99 | 1010.8 |
| 20260509034015 | 20 | 355 | 0.0 | 0.0 | 0.00 | 0.00 | 0.00 | 99 | 1010.7 |
| 20260509033512 | 20 | 355 | 0.0 | 0.0 | 0.00 | 0.00 | 0.00 | 99 | 1010.7 |
| 20260509033009 | 20 | 355 | 0.0 | 0.0 | 0.00 | 0.00 | 0.00 | 99 | 1010.7 |
| 20260509032506 | 20 | 350 | 0.0 | 0.0 | 0.00 | 0.00 | 0.00 | 99 | 1010.7 |
| 20260509031958 | 20 | 350 | 0.0 | 0.0 | 0.00 | 0.00 | 0.00 | 99 | 1010.4 |
| 20260509031455 | 20 | 350 | 0.0 | 0.0 | 0.00 | 0.00 | 0.00 | 99 | 1010.6 |
| 20260509030953 | 20 | 350 | 0.0 | 0.0 | 0.00 | 0.00 | 0.00 | 99 | 1010.4 |
| 20260509030450 | 20 | 355 | 0.0 | 0.0 | 0.00 | 0.00 | 0.00 | 99 | 1010.2 |
| 20260509025947 | 20 | 10 | 0.0 | 0.0 | 0.00 | 0.00 | 0.00 | 99 | 1010.1 |
| 20260509025443 | 20 | 356 | 0.0 | 0.0 | 0.00 | 0.00 | 0.00 | 99 | 1010.0 |
| 20260509024938 | 20 | 11 | 0.0 | 0.0 | 0.00 | 0.00 | 0.00 | 99 | 1010.1 |
| 20260509024435 | 20 | 354 | 0.0 | 0.0 | 0.00 | 0.00 | 0.00 | 99 | 1010.0 |
| 20260509023932 | 20 | 28 | 0.0 | 1.6 | 0.00 | 0.00 | 0.00 | 99 | 1009.8 |
| 20260509023429 | 20 | 48 | 1.6 | 1.6 | 0.00 | 0.00 | 0.00 | 98 | 1009.8 |
| 20260509022926 | 20 | 27 | 0.0 | 1.6 | 0.00 | 0.00 | 0.00 | 98 | 1009.8 |
| 20260509022423 | 20 | 0 | 0.0 | 0.0 | 0.00 | 0.00 | 0.00 | 98 | 1009.5 |
| 20260509021920 | 20 | 17 | 0.0 | 0.0 | 0.00 | 0.00 | 0.00 | 98 | 1009.2 |
| 20260509021417 | 20 | 0 | 0.0 | 0.0 | 0.00 | 0.00 | 0.00 | 98 | 1009.1 |
| 20260509020915 | 20 | 58 | 1.6 | 1.6 | 0.00 | 0.00 | 0.00 | 98 | 1008.8 |